sensor_id;sensor_type;location;lat;lon;timestamp;P1;durP1;ratioP1;P2;durP2;ratioP2
37321;SDS011;23697;48.684;9.032;2022-08-25T00:01:44;7.28;;;3.10;;
37321;SDS011;23697;48.684;9.032;2022-08-25T00:04:14;5.57;;;3.05;;
37321;SDS011;23697;48.684;9.032;2022-08-25T00:06:43;5.32;;;3.00;;
37321;SDS011;23697;48.684;9.032;2022-08-25T00:09:11;4.43;;;3.05;;
37321;SDS011;23697;48.684;9.032;2022-08-25T00:11:40;4.30;;;3.00;;
37321;SDS011;23697;48.684;9.032;2022-08-25T00:14:09;3.90;;;2.95;;
37321;SDS011;23697;48.684;9.032;2022-08-25T00:16:39;3.78;;;3.00;;
37321;SDS011;23697;48.684;9.032;2022-08-25T00:19:07;4.47;;;2.97;;
37321;SDS011;23697;48.684;9.032;2022-08-25T00:21:35;4.88;;;3.20;;
37321;SDS011;23697;48.684;9.032;2022-08-25T00:24:05;4.60;;;3.30;;
37321;SDS011;23697;48.684;9.032;2022-08-25T00:26:34;5.00;;;3.33;;
37321;SDS011;23697;48.684;9.032;2022-08-25T00:29:04;4.93;;;3.40;;
37321;SDS011;23697;48.684;9.032;2022-08-25T00:31:32;5.50;;;3.40;;
37321;SDS011;23697;48.684;9.032;2022-08-25T00:34:01;5.65;;;3.50;;
37321;SDS011;23697;48.684;9.032;2022-08-25T00:36:31;5.68;;;3.22;;
37321;SDS011;23697;48.684;9.032;2022-08-25T00:38:58;5.68;;;3.53;;
37321;SDS011;23697;48.684;9.032;2022-08-25T00:41:25;4.80;;;3.30;;
37321;SDS011;23697;48.684;9.032;2022-08-25T00:43:53;4.95;;;3.10;;
37321;SDS011;23697;48.684;9.032;2022-08-25T00:46:23;5.25;;;3.40;;
37321;SDS011;23697;48.684;9.032;2022-08-25T00:48:52;5.30;;;3.35;;
37321;SDS011;23697;48.684;9.032;2022-08-25T00:51:27;5.57;;;3.22;;
37321;SDS011;23697;48.684;9.032;2022-08-25T00:54:04;5.07;;;3.20;;
37321;SDS011;23697;48.684;9.032;2022-08-25T00:56:33;4.90;;;3.10;;
37321;SDS011;23697;48.684;9.032;2022-08-25T00:59:00;4.45;;;3.30;;
37321;SDS011;23697;48.684;9.032;2022-08-25T01:01:29;4.55;;;3.20;;
37321;SDS011;23697;48.684;9.032;2022-08-25T01:03:56;4.85;;;3.25;;
37321;SDS011;23697;48.684;9.032;2022-08-25T01:06:23;4.70;;;3.30;;
37321;SDS011;23697;48.684;9.032;2022-08-25T01:08:51;5.82;;;3.50;;
37321;SDS011;23697;48.684;9.032;2022-08-25T01:11:18;5.60;;;3.40;;
37321;SDS011;23697;48.684;9.032;2022-08-25T01:13:47;6.35;;;3.70;;
37321;SDS011;23697;48.684;9.032;2022-08-25T01:16:17;5.00;;;3.53;;
37321;SDS011;23697;48.684;9.032;2022-08-25T01:18:46;5.82;;;3.60;;
37321;SDS011;23697;48.684;9.032;2022-08-25T01:21:16;6.10;;;3.87;;
37321;SDS011;23697;48.684;9.032;2022-08-25T01:23:44;5.32;;;3.53;;
37321;SDS011;23697;48.684;9.032;2022-08-25T01:26:13;5.15;;;3.70;;
37321;SDS011;23697;48.684;9.032;2022-08-25T01:28:42;6.28;;;3.75;;
37321;SDS011;23697;48.684;9.032;2022-08-25T01:31:24;5.15;;;3.70;;
37321;SDS011;23697;48.684;9.032;2022-08-25T01:33:51;5.45;;;3.58;;
37321;SDS011;23697;48.684;9.032;2022-08-25T01:36:20;5.03;;;3.70;;
37321;SDS011;23697;48.684;9.032;2022-08-25T01:38:47;4.50;;;3.70;;
37321;SDS011;23697;48.684;9.032;2022-08-25T01:41:15;4.95;;;3.65;;
37321;SDS011;23697;48.684;9.032;2022-08-25T01:43:42;5.03;;;3.72;;
37321;SDS011;23697;48.684;9.032;2022-08-25T01:46:09;5.20;;;3.38;;
37321;SDS011;23697;48.684;9.032;2022-08-25T01:48:36;4.93;;;3.58;;
37321;SDS011;23697;48.684;9.032;2022-08-25T01:51:04;2.60;;;2.08;;
37321;SDS011;23697;48.684;9.032;2022-08-25T01:53:32;4.07;;;3.25;;
37321;SDS011;23697;48.684;9.032;2022-08-25T01:55:59;0.00;;;0.00;;
37321;SDS011;23697;48.684;9.032;2022-08-25T01:58:35;0.00;;;0.00;;
37321;SDS011;23697;48.684;9.032;2022-08-25T02:01:04;0.00;;;0.00;;
37321;SDS011;23697;48.684;9.032;2022-08-25T02:03:35;0.00;;;0.00;;
37321;SDS011;23697;48.684;9.032;2022-08-25T02:06:04;0.00;;;0.00;;
37321;SDS011;23697;48.684;9.032;2022-08-25T02:08:33;0.00;;;0.00;;
37321;SDS011;23697;48.684;9.032;2022-08-25T02:11:00;0.00;;;0.00;;
37321;SDS011;23697;48.684;9.032;2022-08-25T02:13:27;0.00;;;0.00;;
37321;SDS011;23697;48.684;9.032;2022-08-25T02:15:55;0.00;;;0.00;;
37321;SDS011;23697;48.684;9.032;2022-08-25T02:18:24;0.00;;;0.00;;
37321;SDS011;23697;48.684;9.032;2022-08-25T02:20:51;0.00;;;0.00;;
37321;SDS011;23697;48.684;9.032;2022-08-25T02:23:18;0.00;;;0.00;;
37321;SDS011;23697;48.684;9.032;2022-08-25T02:25:46;0.00;;;0.00;;
37321;SDS011;23697;48.684;9.032;2022-08-25T02:28:13;0.00;;;0.00;;
37321;SDS011;23697;48.684;9.032;2022-08-25T02:30:41;0.00;;;0.00;;
37321;SDS011;23697;48.684;9.032;2022-08-25T02:33:08;0.00;;;0.00;;
37321;SDS011;23697;48.684;9.032;2022-08-25T02:35:35;0.00;;;0.00;;
37321;SDS011;23697;48.684;9.032;2022-08-25T02:38:03;0.00;;;0.00;;
37321;SDS011;23697;48.684;9.032;2022-08-25T02:40:31;0.00;;;0.00;;
37321;SDS011;23697;48.684;9.032;2022-08-25T02:42:59;0.00;;;0.00;;
37321;SDS011;23697;48.684;9.032;2022-08-25T02:45:26;0.00;;;0.00;;
37321;SDS011;23697;48.684;9.032;2022-08-25T02:47:53;0.00;;;0.00;;
37321;SDS011;23697;48.684;9.032;2022-08-25T02:50:20;0.00;;;0.00;;
37321;SDS011;23697;48.684;9.032;2022-08-25T02:52:47;0.00;;;0.00;;
37321;SDS011;23697;48.684;9.032;2022-08-25T02:55:16;0.00;;;0.00;;
37321;SDS011;23697;48.684;9.032;2022-08-25T02:57:43;0.00;;;0.00;;
37321;SDS011;23697;48.684;9.032;2022-08-25T03:00:12;0.00;;;0.00;;
37321;SDS011;23697;48.684;9.032;2022-08-25T03:02:41;0.00;;;0.00;;
37321;SDS011;23697;48.684;9.032;2022-08-25T03:05:10;0.00;;;0.00;;
37321;SDS011;23697;48.684;9.032;2022-08-25T03:07:38;0.00;;;0.00;;
37321;SDS011;23697;48.684;9.032;2022-08-25T03:10:05;0.00;;;0.00;;
37321;SDS011;23697;48.684;9.032;2022-08-25T03:12:34;0.00;;;0.00;;
37321;SDS011;23697;48.684;9.032;2022-08-25T03:15:01;0.00;;;0.00;;
37321;SDS011;23697;48.684;9.032;2022-08-25T03:17:30;0.00;;;0.00;;
37321;SDS011;23697;48.684;9.032;2022-08-25T03:19:57;0.00;;;0.00;;
37321;SDS011;23697;48.684;9.032;2022-08-25T03:22:24;0.00;;;0.00;;
37321;SDS011;23697;48.684;9.032;2022-08-25T03:24:51;0.00;;;0.00;;
37321;SDS011;23697;48.684;9.032;2022-08-25T03:27:38;0.00;;;0.00;;
37321;SDS011;23697;48.684;9.032;2022-08-25T03:30:07;0.00;;;0.00;;
37321;SDS011;23697;48.684;9.032;2022-08-25T03:32:37;0.00;;;0.00;;
37321;SDS011;23697;48.684;9.032;2022-08-25T03:35:05;0.00;;;0.00;;
37321;SDS011;23697;48.684;9.032;2022-08-25T03:37:32;0.00;;;0.00;;
37321;SDS011;23697;48.684;9.032;2022-08-25T03:40:00;0.00;;;0.00;;
37321;SDS011;23697;48.684;9.032;2022-08-25T03:42:27;0.00;;;0.00;;
37321;SDS011;23697;48.684;9.032;2022-08-25T03:44:54;0.00;;;0.00;;
37321;SDS011;23697;48.684;9.032;2022-08-25T03:47:21;0.00;;;0.00;;
37321;SDS011;23697;48.684;9.032;2022-08-25T03:49:51;0.00;;;0.00;;
37321;SDS011;23697;48.684;9.032;2022-08-25T03:52:18;0.00;;;0.00;;
37321;SDS011;23697;48.684;9.032;2022-08-25T03:54:45;0.00;;;0.00;;
37321;SDS011;23697;48.684;9.032;2022-08-25T03:57:12;0.00;;;0.00;;
37321;SDS011;23697;48.684;9.032;2022-08-25T03:59:39;0.00;;;0.00;;
37321;SDS011;23697;48.684;9.032;2022-08-25T04:02:06;0.00;;;0.00;;
37321;SDS011;23697;48.684;9.032;2022-08-25T04:04:34;0.00;;;0.00;;
37321;SDS011;23697;48.684;9.032;2022-08-25T04:07:02;0.10;;;0.10;;
37321;SDS011;23697;48.684;9.032;2022-08-25T04:09:29;6.53;;;4.32;;
37321;SDS011;23697;48.684;9.032;2022-08-25T04:11:56;5.55;;;4.13;;
37321;SDS011;23697;48.684;9.032;2022-08-25T04:14:23;5.60;;;3.97;;
37321;SDS011;23697;48.684;9.032;2022-08-25T04:16:50;8.30;;;4.45;;
37321;SDS011;23697;48.684;9.032;2022-08-25T04:19:18;5.50;;;4.30;;
37321;SDS011;23697;48.684;9.032;2022-08-25T04:21:45;5.90;;;4.30;;
37321;SDS011;23697;48.684;9.032;2022-08-25T04:24:13;7.20;;;4.30;;
37321;SDS011;23697;48.684;9.032;2022-08-25T04:26:42;5.93;;;3.92;;
37321;SDS011;23697;48.684;9.032;2022-08-25T04:29:11;7.05;;;4.43;;
37321;SDS011;23697;48.684;9.032;2022-08-25T04:31:39;7.65;;;4.32;;
37321;SDS011;23697;48.684;9.032;2022-08-25T04:34:07;7.20;;;4.25;;
37321;SDS011;23697;48.684;9.032;2022-08-25T04:36:35;5.50;;;4.22;;
37321;SDS011;23697;48.684;9.032;2022-08-25T04:39:02;8.40;;;4.57;;
37321;SDS011;23697;48.684;9.032;2022-08-25T04:41:30;5.85;;;4.65;;
37321;SDS011;23697;48.684;9.032;2022-08-25T04:43:59;7.15;;;4.68;;
37321;SDS011;23697;48.684;9.032;2022-08-25T04:46:28;6.80;;;4.70;;
37321;SDS011;23697;48.684;9.032;2022-08-25T04:48:56;6.15;;;4.72;;
37321;SDS011;23697;48.684;9.032;2022-08-25T04:51:26;6.28;;;4.30;;
37321;SDS011;23697;48.684;9.032;2022-08-25T04:53:54;6.13;;;4.40;;
37321;SDS011;23697;48.684;9.032;2022-08-25T04:56:23;7.55;;;4.63;;
37321;SDS011;23697;48.684;9.032;2022-08-25T04:58:52;8.07;;;4.57;;
37321;SDS011;23697;48.684;9.032;2022-08-25T05:01:20;10.98;;;5.10;;
37321;SDS011;23697;48.684;9.032;2022-08-25T05:03:51;7.40;;;4.78;;
37321;SDS011;23697;48.684;9.032;2022-08-25T05:06:20;7.32;;;4.97;;
37321;SDS011;23697;48.684;9.032;2022-08-25T05:08:47;7.35;;;4.90;;
37321;SDS011;23697;48.684;9.032;2022-08-25T05:11:15;7.78;;;5.05;;
37321;SDS011;23697;48.684;9.032;2022-08-25T05:13:43;8.05;;;5.15;;
37321;SDS011;23697;48.684;9.032;2022-08-25T05:16:20;9.13;;;5.32;;
37321;SDS011;23697;48.684;9.032;2022-08-25T05:18:49;11.48;;;5.07;;
37321;SDS011;23697;48.684;9.032;2022-08-25T05:21:17;9.68;;;4.60;;
37321;SDS011;23697;48.684;9.032;2022-08-25T05:23:45;8.35;;;5.10;;
37321;SDS011;23697;48.684;9.032;2022-08-25T05:26:14;11.05;;;5.30;;
37321;SDS011;23697;48.684;9.032;2022-08-25T05:28:43;11.40;;;5.53;;
37321;SDS011;23697;48.684;9.032;2022-08-25T05:31:12;9.93;;;5.30;;
37321;SDS011;23697;48.684;9.032;2022-08-25T05:33:40;10.60;;;5.55;;
37321;SDS011;23697;48.684;9.032;2022-08-25T05:36:08;8.18;;;5.28;;
37321;SDS011;23697;48.684;9.032;2022-08-25T05:38:36;7.75;;;5.50;;
37321;SDS011;23697;48.684;9.032;2022-08-25T05:41:05;8.02;;;5.47;;
37321;SDS011;23697;48.684;9.032;2022-08-25T05:43:34;8.23;;;4.95;;
37321;SDS011;23697;48.684;9.032;2022-08-25T05:46:02;7.28;;;5.10;;
37321;SDS011;23697;48.684;9.032;2022-08-25T05:48:30;7.97;;;5.13;;
37321;SDS011;23697;48.684;9.032;2022-08-25T05:50:58;7.70;;;5.70;;
37321;SDS011;23697;48.684;9.032;2022-08-25T05:53:28;9.67;;;5.43;;
37321;SDS011;23697;48.684;9.032;2022-08-25T05:55:57;9.25;;;5.55;;
37321;SDS011;23697;48.684;9.032;2022-08-25T05:58:25;8.48;;;5.00;;
37321;SDS011;23697;48.684;9.032;2022-08-25T06:00:53;7.25;;;5.18;;
37321;SDS011;23697;48.684;9.032;2022-08-25T06:03:21;8.40;;;5.68;;
37321;SDS011;23697;48.684;9.032;2022-08-25T06:05:48;9.48;;;5.93;;
37321;SDS011;23697;48.684;9.032;2022-08-25T06:08:15;7.55;;;5.57;;
37321;SDS011;23697;48.684;9.032;2022-08-25T06:10:42;9.43;;;5.80;;
37321;SDS011;23697;48.684;9.032;2022-08-25T06:13:09;7.75;;;5.95;;
37321;SDS011;23697;48.684;9.032;2022-08-25T06:15:40;11.40;;;6.22;;
37321;SDS011;23697;48.684;9.032;2022-08-25T06:18:32;9.85;;;6.65;;
37321;SDS011;23697;48.684;9.032;2022-08-25T06:21:06;10.25;;;6.43;;
37321;SDS011;23697;48.684;9.032;2022-08-25T06:23:35;11.27;;;6.78;;
37321;SDS011;23697;48.684;9.032;2022-08-25T06:26:02;9.52;;;6.47;;
37321;SDS011;23697;48.684;9.032;2022-08-25T06:28:30;10.50;;;6.60;;
37321;SDS011;23697;48.684;9.032;2022-08-25T06:30:57;8.05;;;6.03;;
37321;SDS011;23697;48.684;9.032;2022-08-25T06:33:25;8.82;;;6.43;;
37321;SDS011;23697;48.684;9.032;2022-08-25T06:35:52;11.30;;;6.13;;
37321;SDS011;23697;48.684;9.032;2022-08-25T06:38:22;8.80;;;6.82;;
37321;SDS011;23697;48.684;9.032;2022-08-25T06:40:49;9.32;;;6.82;;
37321;SDS011;23697;48.684;9.032;2022-08-25T06:43:17;10.15;;;6.97;;
37321;SDS011;23697;48.684;9.032;2022-08-25T06:45:44;10.90;;;7.22;;
37321;SDS011;23697;48.684;9.032;2022-08-25T06:48:10;12.70;;;7.03;;
37321;SDS011;23697;48.684;9.032;2022-08-25T06:50:38;11.10;;;6.93;;
37321;SDS011;23697;48.684;9.032;2022-08-25T06:53:05;9.95;;;6.38;;
37321;SDS011;23697;48.684;9.032;2022-08-25T06:55:35;9.52;;;6.70;;
37321;SDS011;23697;48.684;9.032;2022-08-25T06:58:02;10.43;;;6.63;;
37321;SDS011;23697;48.684;9.032;2022-08-25T07:00:29;13.18;;;7.00;;
37321;SDS011;23697;48.684;9.032;2022-08-25T07:02:57;10.07;;;7.22;;
37321;SDS011;23697;48.684;9.032;2022-08-25T07:05:25;10.23;;;6.65;;
37321;SDS011;23697;48.684;9.032;2022-08-25T07:07:53;10.13;;;6.55;;
37321;SDS011;23697;48.684;9.032;2022-08-25T07:10:20;8.68;;;6.15;;
37321;SDS011;23697;48.684;9.032;2022-08-25T07:12:49;11.48;;;6.45;;
37321;SDS011;23697;48.684;9.032;2022-08-25T07:15:16;9.40;;;6.05;;
37321;SDS011;23697;48.684;9.032;2022-08-25T07:17:44;9.88;;;5.90;;
37321;SDS011;23697;48.684;9.032;2022-08-25T07:20:10;7.70;;;6.05;;
37321;SDS011;23697;48.684;9.032;2022-08-25T07:22:37;8.20;;;5.80;;
37321;SDS011;23697;48.684;9.032;2022-08-25T07:25:05;9.90;;;6.05;;
37321;SDS011;23697;48.684;9.032;2022-08-25T07:27:32;8.35;;;5.75;;
37321;SDS011;23697;48.684;9.032;2022-08-25T07:30:01;7.75;;;5.75;;
37321;SDS011;23697;48.684;9.032;2022-08-25T07:32:28;9.73;;;6.07;;
37321;SDS011;23697;48.684;9.032;2022-08-25T07:34:55;8.82;;;6.28;;
37321;SDS011;23697;48.684;9.032;2022-08-25T07:37:39;9.38;;;5.60;;
37321;SDS011;23697;48.684;9.032;2022-08-25T07:40:08;7.57;;;5.90;;
37321;SDS011;23697;48.684;9.032;2022-08-25T07:42:36;10.00;;;6.13;;
37321;SDS011;23697;48.684;9.032;2022-08-25T07:45:06;11.25;;;5.97;;
37321;SDS011;23697;48.684;9.032;2022-08-25T07:47:34;14.02;;;9.75;;
37321;SDS011;23697;48.684;9.032;2022-08-25T07:50:03;8.30;;;5.88;;
37321;SDS011;23697;48.684;9.032;2022-08-25T08:16:34;6.78;;;4.43;;
37321;SDS011;23697;48.684;9.032;2022-08-25T08:19:01;7.45;;;4.75;;
37321;SDS011;23697;48.684;9.032;2022-08-25T08:21:29;5.70;;;4.55;;
37321;SDS011;23697;48.684;9.032;2022-08-25T08:27:04;5.15;;;4.15;;
37321;SDS011;23697;48.684;9.032;2022-08-25T08:29:32;5.53;;;4.07;;
37321;SDS011;23697;48.684;9.032;2022-08-25T08:32:03;6.85;;;4.00;;
37321;SDS011;23697;48.684;9.032;2022-08-25T08:34:31;5.30;;;4.28;;
37321;SDS011;23697;48.684;9.032;2022-08-25T08:37:00;9.68;;;4.40;;
37321;SDS011;23697;48.684;9.032;2022-08-25T08:39:27;5.65;;;4.32;;
37321;SDS011;23697;48.684;9.032;2022-08-25T08:41:57;5.55;;;4.30;;
37321;SDS011;23697;48.684;9.032;2022-08-25T08:57:45;6.20;;;4.53;;
37321;SDS011;23697;48.684;9.032;2022-08-25T09:00:15;5.30;;;4.03;;
37321;SDS011;23697;48.684;9.032;2022-08-25T09:02:45;5.28;;;3.88;;
37321;SDS011;23697;48.684;9.032;2022-08-25T09:05:19;4.78;;;3.70;;
37321;SDS011;23697;48.684;9.032;2022-08-25T09:07:49;5.60;;;3.60;;
37321;SDS011;23697;48.684;9.032;2022-08-25T09:10:22;5.55;;;4.00;;
37321;SDS011;23697;48.684;9.032;2022-08-25T09:12:52;7.35;;;5.85;;
37321;SDS011;23697;48.684;9.032;2022-08-25T09:15:27;23.35;;;18.48;;
37321;SDS011;23697;48.684;9.032;2022-08-25T09:18:17;5.60;;;3.70;;
37321;SDS011;23697;48.684;9.032;2022-08-25T09:20:53;4.95;;;3.90;;
37321;SDS011;23697;48.684;9.032;2022-08-25T09:23:33;4.80;;;4.07;;
37321;SDS011;23697;48.684;9.032;2022-08-25T09:26:11;8.20;;;4.35;;
37321;SDS011;23697;48.684;9.032;2022-08-25T09:28:48;4.55;;;3.80;;
37321;SDS011;23697;48.684;9.032;2022-08-25T09:31:21;5.30;;;3.75;;
37321;SDS011;23697;48.684;9.032;2022-08-25T09:33:49;5.70;;;3.92;;
37321;SDS011;23697;48.684;9.032;2022-08-25T09:36:22;4.88;;;3.58;;
37321;SDS011;23697;48.684;9.032;2022-08-25T09:38:59;6.57;;;6.00;;
37321;SDS011;23697;48.684;9.032;2022-08-25T10:18:40;7.45;;;4.80;;
37321;SDS011;23697;48.684;9.032;2022-08-25T10:21:09;6.63;;;5.03;;
37321;SDS011;23697;48.684;9.032;2022-08-25T10:23:38;7.18;;;4.85;;
37321;SDS011;23697;48.684;9.032;2022-08-25T10:26:10;6.22;;;4.70;;
37321;SDS011;23697;48.684;9.032;2022-08-25T10:29:19;6.68;;;4.25;;
37321;SDS011;23697;48.684;9.032;2022-08-25T10:32:14;5.68;;;4.45;;
37321;SDS011;23697;48.684;9.032;2022-08-25T10:34:53;8.00;;;4.50;;
37321;SDS011;23697;48.684;9.032;2022-08-25T10:37:25;6.20;;;4.03;;
37321;SDS011;23697;48.684;9.032;2022-08-25T10:40:02;6.10;;;4.30;;
37321;SDS011;23697;48.684;9.032;2022-08-25T10:42:36;6.40;;;4.20;;
37321;SDS011;23697;48.684;9.032;2022-08-25T10:45:11;6.43;;;4.10;;
37321;SDS011;23697;48.684;9.032;2022-08-25T10:48:03;5.40;;;4.20;;
37321;SDS011;23697;48.684;9.032;2022-08-25T10:50:43;6.55;;;4.50;;
37321;SDS011;23697;48.684;9.032;2022-08-25T10:53:20;5.60;;;3.95;;
37321;SDS011;23697;48.684;9.032;2022-08-25T10:55:56;5.45;;;3.83;;
37321;SDS011;23697;48.684;9.032;2022-08-25T10:58:44;5.00;;;4.00;;
37321;SDS011;23697;48.684;9.032;2022-08-25T11:01:36;8.18;;;4.00;;
37321;SDS011;23697;48.684;9.032;2022-08-25T11:04:11;4.68;;;3.83;;
37321;SDS011;23697;48.684;9.032;2022-08-25T11:06:48;6.97;;;4.20;;
37321;SDS011;23697;48.684;9.032;2022-08-25T11:09:21;7.10;;;4.28;;
37321;SDS011;23697;48.684;9.032;2022-08-25T11:11:54;5.88;;;3.80;;
37321;SDS011;23697;48.684;9.032;2022-08-25T11:14:27;6.13;;;3.97;;
37321;SDS011;23697;48.684;9.032;2022-08-25T11:17:00;4.75;;;3.83;;
37321;SDS011;23697;48.684;9.032;2022-08-25T11:19:32;6.05;;;3.90;;
37321;SDS011;23697;48.684;9.032;2022-08-25T11:22:18;7.15;;;3.67;;
37321;SDS011;23697;48.684;9.032;2022-08-25T11:24:51;5.90;;;3.58;;
37321;SDS011;23697;48.684;9.032;2022-08-25T11:27:27;4.60;;;3.50;;
37321;SDS011;23697;48.684;9.032;2022-08-25T11:30:19;5.43;;;3.40;;
37321;SDS011;23697;48.684;9.032;2022-08-25T11:36:09;5.55;;;3.85;;
37321;SDS011;23697;48.684;9.032;2022-08-25T11:38:45;8.85;;;5.45;;
37321;SDS011;23697;48.684;9.032;2022-08-25T11:41:24;20.02;;;14.77;;
37321;SDS011;23697;48.684;9.032;2022-08-25T11:44:04;5.28;;;3.78;;
37321;SDS011;23697;48.684;9.032;2022-08-25T11:46:59;6.40;;;3.75;;
37321;SDS011;23697;48.684;9.032;2022-08-25T11:50:04;5.90;;;3.60;;
37321;SDS011;23697;48.684;9.032;2022-08-25T11:52:43;6.38;;;3.47;;
37321;SDS011;23697;48.684;9.032;2022-08-25T11:55:16;5.00;;;3.00;;
37321;SDS011;23697;48.684;9.032;2022-08-25T11:57:47;4.20;;;3.03;;
37321;SDS011;23697;48.684;9.032;2022-08-25T12:06:14;0.10;;;0.10;;
37321;SDS011;23697;48.684;9.032;2022-08-25T12:08:48;0.00;;;0.00;;
37321;SDS011;23697;48.684;9.032;2022-08-25T12:14:35;0.00;;;0.00;;
37321;SDS011;23697;48.684;9.032;2022-08-25T12:17:18;0.08;;;0.08;;
37321;SDS011;23697;48.684;9.032;2022-08-25T12:19:52;0.10;;;0.10;;
37321;SDS011;23697;48.684;9.032;2022-08-25T12:22:40;0.10;;;0.10;;
37321;SDS011;23697;48.684;9.032;2022-08-25T12:25:23;0.10;;;0.10;;
37321;SDS011;23697;48.684;9.032;2022-08-25T12:28:25;0.10;;;0.10;;
37321;SDS011;23697;48.684;9.032;2022-08-25T12:31:07;0.10;;;0.10;;
37321;SDS011;23697;48.684;9.032;2022-08-25T12:33:46;0.57;;;0.20;;
37321;SDS011;23697;48.684;9.032;2022-08-25T12:36:28;0.10;;;0.10;;
37321;SDS011;23697;48.684;9.032;2022-08-25T12:39:07;0.63;;;0.20;;
37321;SDS011;23697;48.684;9.032;2022-08-25T12:41:50;0.10;;;0.10;;
37321;SDS011;23697;48.684;9.032;2022-08-25T12:44:33;0.10;;;0.10;;
37321;SDS011;23697;48.684;9.032;2022-08-25T12:47:06;0.10;;;0.10;;
37321;SDS011;23697;48.684;9.032;2022-08-25T12:49:39;0.95;;;0.20;;
37321;SDS011;23697;48.684;9.032;2022-08-25T12:52:09;0.10;;;0.10;;
37321;SDS011;23697;48.684;9.032;2022-08-25T12:54:41;0.10;;;0.10;;
37321;SDS011;23697;48.684;9.032;2022-08-25T12:57:21;0.10;;;0.10;;
37321;SDS011;23697;48.684;9.032;2022-08-25T12:59:58;0.10;;;0.10;;
37321;SDS011;23697;48.684;9.032;2022-08-25T13:02:38;0.05;;;0.05;;
37321;SDS011;23697;48.684;9.032;2022-08-25T13:05:49;0.10;;;0.10;;
37321;SDS011;23697;48.684;9.032;2022-08-25T13:08:42;0.20;;;0.20;;
37321;SDS011;23697;48.684;9.032;2022-08-25T13:11:23;0.10;;;0.10;;
37321;SDS011;23697;48.684;9.032;2022-08-25T13:13:59;0.10;;;0.10;;
37321;SDS011;23697;48.684;9.032;2022-08-25T13:16:34;0.10;;;0.10;;
37321;SDS011;23697;48.684;9.032;2022-08-25T13:19:03;0.30;;;0.30;;
37321;SDS011;23697;48.684;9.032;2022-08-25T13:21:32;0.00;;;0.00;;
37321;SDS011;23697;48.684;9.032;2022-08-25T13:24:05;0.00;;;0.00;;
37321;SDS011;23697;48.684;9.032;2022-08-25T13:26:36;0.00;;;0.00;;
37321;SDS011;23697;48.684;9.032;2022-08-25T13:29:11;0.00;;;0.00;;
37321;SDS011;23697;48.684;9.032;2022-08-25T13:31:50;0.10;;;0.10;;
37321;SDS011;23697;48.684;9.032;2022-08-25T13:34:25;0.10;;;0.10;;
37321;SDS011;23697;48.684;9.032;2022-08-25T13:36:54;0.10;;;0.10;;
37321;SDS011;23697;48.684;9.032;2022-08-25T13:39:38;4.90;;;2.80;;
37321;SDS011;23697;48.684;9.032;2022-08-25T13:42:10;3.75;;;2.72;;
37321;SDS011;23697;48.684;9.032;2022-08-25T13:44:38;3.75;;;2.97;;
37321;SDS011;23697;48.684;9.032;2022-08-25T13:47:09;3.83;;;2.83;;
37321;SDS011;23697;48.684;9.032;2022-08-25T13:49:39;4.85;;;2.92;;
37321;SDS011;23697;48.684;9.032;2022-08-25T13:52:07;4.07;;;2.80;;
37321;SDS011;23697;48.684;9.032;2022-08-25T13:54:44;4.25;;;2.65;;
37321;SDS011;23697;48.684;9.032;2022-08-25T13:57:13;3.35;;;2.65;;
37321;SDS011;23697;48.684;9.032;2022-08-25T13:59:47;4.00;;;2.85;;
37321;SDS011;23697;48.684;9.032;2022-08-25T14:02:37;3.60;;;2.55;;
37321;SDS011;23697;48.684;9.032;2022-08-25T14:05:07;3.65;;;2.70;;
37321;SDS011;23697;48.684;9.032;2022-08-25T14:10:04;4.10;;;3.03;;
37321;SDS011;23697;48.684;9.032;2022-08-25T14:12:34;4.00;;;2.85;;
37321;SDS011;23697;48.684;9.032;2022-08-25T14:15:08;4.25;;;2.80;;
37321;SDS011;23697;48.684;9.032;2022-08-25T14:17:39;4.18;;;2.75;;
37321;SDS011;23697;48.684;9.032;2022-08-25T14:20:16;3.40;;;2.67;;
37321;SDS011;23697;48.684;9.032;2022-08-25T14:22:48;6.30;;;3.00;;
37321;SDS011;23697;48.684;9.032;2022-08-25T14:25:19;4.20;;;2.60;;
37321;SDS011;23697;48.684;9.032;2022-08-25T14:27:52;4.18;;;2.90;;
37321;SDS011;23697;48.684;9.032;2022-08-25T14:30:21;5.18;;;2.70;;
37321;SDS011;23697;48.684;9.032;2022-08-25T14:32:48;6.03;;;2.85;;
37321;SDS011;23697;48.684;9.032;2022-08-25T14:35:17;4.93;;;2.75;;
37321;SDS011;23697;48.684;9.032;2022-08-25T14:37:44;5.10;;;2.70;;
37321;SDS011;23697;48.684;9.032;2022-08-25T14:40:11;4.68;;;2.60;;
37321;SDS011;23697;48.684;9.032;2022-08-25T14:42:40;3.95;;;2.80;;
37321;SDS011;23697;48.684;9.032;2022-08-25T14:45:08;3.80;;;2.60;;
37321;SDS011;23697;48.684;9.032;2022-08-25T14:47:38;5.20;;;2.72;;
37321;SDS011;23697;48.684;9.032;2022-08-25T14:53:28;3.17;;;2.30;;
37321;SDS011;23697;48.684;9.032;2022-08-25T14:55:55;3.78;;;2.67;;
37321;SDS011;23697;48.684;9.032;2022-08-25T14:58:22;3.40;;;2.50;;
37321;SDS011;23697;48.684;9.032;2022-08-25T15:00:50;4.40;;;2.58;;
37321;SDS011;23697;48.684;9.032;2022-08-25T15:03:20;3.70;;;2.70;;
37321;SDS011;23697;48.684;9.032;2022-08-25T15:05:51;3.60;;;2.60;;
37321;SDS011;23697;48.684;9.032;2022-08-25T15:08:18;3.38;;;2.42;;
37321;SDS011;23697;48.684;9.032;2022-08-25T15:11:04;4.20;;;2.42;;
37321;SDS011;23697;48.684;9.032;2022-08-25T15:13:34;4.45;;;2.58;;
37321;SDS011;23697;48.684;9.032;2022-08-25T15:16:02;4.20;;;2.50;;
37321;SDS011;23697;48.684;9.032;2022-08-25T15:18:29;3.88;;;2.40;;
37321;SDS011;23697;48.684;9.032;2022-08-25T15:20:56;3.53;;;2.25;;
37321;SDS011;23697;48.684;9.032;2022-08-25T15:23:23;4.38;;;2.50;;
37321;SDS011;23697;48.684;9.032;2022-08-25T15:25:50;5.30;;;2.70;;
37321;SDS011;23697;48.684;9.032;2022-08-25T15:28:21;3.33;;;2.58;;
37321;SDS011;23697;48.684;9.032;2022-08-25T15:30:49;3.60;;;2.58;;
37321;SDS011;23697;48.684;9.032;2022-08-25T15:33:16;4.22;;;2.50;;
37321;SDS011;23697;48.684;9.032;2022-08-25T15:35:43;3.35;;;2.60;;
37321;SDS011;23697;48.684;9.032;2022-08-25T15:38:10;4.35;;;2.80;;
37321;SDS011;23697;48.684;9.032;2022-08-25T15:40:37;4.13;;;2.50;;
37321;SDS011;23697;48.684;9.032;2022-08-25T15:43:04;3.58;;;2.47;;
37321;SDS011;23697;48.684;9.032;2022-08-25T15:45:33;4.28;;;2.70;;
37321;SDS011;23697;48.684;9.032;2022-08-25T15:48:01;5.35;;;2.67;;
37321;SDS011;23697;48.684;9.032;2022-08-25T15:50:30;4.00;;;2.70;;
37321;SDS011;23697;48.684;9.032;2022-08-25T15:52:57;4.88;;;2.65;;
37321;SDS011;23697;48.684;9.032;2022-08-25T15:55:24;5.35;;;2.88;;
37321;SDS011;23697;48.684;9.032;2022-08-25T15:57:51;3.75;;;2.70;;
37321;SDS011;23697;48.684;9.032;2022-08-25T16:00:18;3.75;;;2.60;;
37321;SDS011;23697;48.684;9.032;2022-08-25T16:02:47;4.28;;;2.83;;
37321;SDS011;23697;48.684;9.032;2022-08-25T16:05:14;3.88;;;2.60;;
37321;SDS011;23697;48.684;9.032;2022-08-25T16:07:41;4.75;;;2.67;;
37321;SDS011;23697;48.684;9.032;2022-08-25T16:10:12;4.57;;;2.70;;
37321;SDS011;23697;48.684;9.032;2022-08-25T16:12:40;3.97;;;2.80;;
37321;SDS011;23697;48.684;9.032;2022-08-25T16:15:07;4.53;;;2.83;;
37321;SDS011;23697;48.684;9.032;2022-08-25T16:17:34;3.40;;;2.70;;
37321;SDS011;23697;48.684;9.032;2022-08-25T16:20:04;4.32;;;2.70;;
37321;SDS011;23697;48.684;9.032;2022-08-25T16:22:31;5.60;;;2.70;;
37321;SDS011;23697;48.684;9.032;2022-08-25T16:24:58;4.38;;;2.80;;
37321;SDS011;23697;48.684;9.032;2022-08-25T16:27:29;4.10;;;2.70;;
37321;SDS011;23697;48.684;9.032;2022-08-25T16:32:23;4.10;;;2.65;;
37321;SDS011;23697;48.684;9.032;2022-08-25T16:34:50;4.32;;;2.85;;
37321;SDS011;23697;48.684;9.032;2022-08-25T16:37:18;5.45;;;2.85;;
37321;SDS011;23697;48.684;9.032;2022-08-25T16:39:46;4.00;;;2.80;;
37321;SDS011;23697;48.684;9.032;2022-08-25T16:42:17;4.88;;;2.75;;
37321;SDS011;23697;48.684;9.032;2022-08-25T16:44:44;4.10;;;2.78;;
37321;SDS011;23697;48.684;9.032;2022-08-25T16:47:11;4.07;;;2.78;;